• Join FlightAware (Why Join?)
  • Login
  • US Flag 
03:16PM EST


 

Airport Tracker/Info


-or-


 

Live Flight TrackerFlight Track Log ✈ KAP927 ✈ 17-May-2013 ✈ KOGS - KALB

Flight Track Log - Related Links

Times and Time Zones

All times are in EDT time to prevent confusion due to time zone crossing. See the KAP927 flight status page for this flight to view local times or setup timezone preferences in your user account.

Time Position Orientation Groundspeed Altitude Reporting Facility
EDT Latitude Longitude Course Direction KTS MPH feet Rate Location/Type
07:14AM 44.4875 -75.2483 148° Southeast 156 180 4,000  Level Boston Center
07:15AM 44.4508 -75.2203 151° Southeast 161 185 4,500 360 Climbing Boston Center
07:16AM 44.4119 -75.1894 150° Southeast 156 180 4,800 300 Climbing Boston Center
07:17AM 44.3731 -75.1586 150° Southeast 156 180 5,200 360 Climbing Boston Center
07:18AM 44.3322 -75.1189 145° Southeast 156 180 5,600 120 Climbing Boston Center
07:19AM 44.5222 -75.3231 149° Southeast  Level Estimated
07:19AM 44.2933 -75.0853 148° Southeast 161 185 5,500  Level Boston Center
07:20AM 44.4841 -75.2899 148° Southeast  Level FlightAware Approximate
07:20AM 44.2464 -75.0456 149° Southeast 175 201 5,500  Level Boston Center
07:21AM 44.2014 -75.0117 152° Southeast 180 207 5,600  Climbing Boston Center
07:22AM 44.1606 -74.9753 147° Southeast 180 207 5,500  Descending Boston Center
07:23AM 44.1197 -74.9331 143° Southeast 180 207 5,700 240 Climbing Boston Center
07:24AM 44.0789 -74.8967 147° Southeast 175 201 6,000 300 Climbing Boston Center
07:25AM 44.0378 -74.8631 150° Southeast 175 201 6,400 300 Climbing Boston Center
07:26AM 44.0050 -74.8389 152° Southeast 175 201 6,700 360 Climbing Boston Center
07:27AM 43.9456 -74.7903 150° Southeast 180 207 7,300 360 Climbing Boston Center
07:28AM 43.9025 -74.7539 149° Southeast 180 207 7,500 60 Climbing Boston Center
07:29AM 43.8553 -74.7175 151° Southeast 180 207 7,500  Level Boston Center
07:30AM 43.8081 -74.6783 149° Southeast 185 213 7,500  Level Boston Center
07:31AM 43.7589 -74.6392 150° Southeast 197 227 7,500  Level Boston Center
07:32AM 43.7117 -74.5972 147° Southeast 197 227 7,500  Level Boston Center
07:33AM 43.6667 -74.5583 148° Southeast 197 227 7,500  Level Boston Center
07:34AM 43.6214 -74.5222 150° Southeast 197 227 7,500  Level Boston Center
07:35AM 43.5764 -74.4836 148° Southeast 192 221 7,600  Climbing Boston Center
07:36AM 43.5311 -74.4447 148° Southeast 192 221 7,500 -60 Descending Boston Center
07:37AM 43.4858 -74.4061 148° Southeast 192 221 7,500 -60 Level Boston Center
07:38AM 43.4511 -74.3792 151° Southeast 193 222 7,400  Descending Boston Center
07:38AM 43.4408 -74.3703 148° Southeast 192 221 7,500  Climbing Boston Center
07:39AM 43.4078 -74.3436 150° Southeast 194 223 7,400 -240 Descending Boston Center
07:39AM 43.3872 -74.3286 152° Southeast 192 221 7,300 60 Descending Boston Center
07:40AM 43.3583 -74.3078 152° Southeast 195 224 7,500  Climbing Boston Center
07:40AM 43.3419 -74.2928 146° Southeast 192 221 7,300 -420 Descending Boston Center
07:41AM 43.3111 -74.2692 151° Southeast 196 226 7,100 -300 Descending Boston Center
07:41AM 43.2925 -74.2544 150° Southeast 198 228 7,000 -300 Descending Boston Center
07:42AM 43.2617 -74.2306 151° Southeast 207 238 6,800 -300 Descending Boston Center
07:42AM 43.2411 -74.2186 157° South 198 228 6,700 -300 Descending Boston Center
07:43AM 43.2100 -74.2006 157° South 204 235 6,500 -420 Descending Boston Center
07:43AM 43.1894 -74.1828 148° Southeast 198 228 6,300 -480 Descending Boston Center
07:44AM 43.1400 -74.1503 154° Southeast 198 228 5,900 -480 Descending Boston Center
07:45AM 43.0967 -74.1233 156° South 203 234 5,500 -480 Descending Boston Center
07:46AM 43.0469 -74.0881 153° Southeast 202 232 5,100 -360 Descending Boston Center
07:47AM 42.9997 -74.0497 149° Southeast 200 230 4,800 -360 Descending Boston Center
07:48AM 42.9481 -74.0144 153° Southeast 194 223 4,400 -480 Descending Boston Center
07:49AM 42.8964 -73.9792 153° Southeast 195 224 3,900 -600 Descending Boston Center
07:50AM 42.8531 -73.9467 151° Southeast 192 221 3,300 -600 Descending Boston Center
07:51AM 42.8056 -73.9117 152° Southeast 192 221 2,800 -600 Descending Boston Center
07:52AM 42.7603 -73.8794 152° Southeast 201 231 2,200 -720 Descending Boston Center
07:54AM 42.7106 -73.8472 155° Southeast 156 180 1,400 -720 Descending Boston Center
07:55AM 42.7194 -73.8078 73° East 125 144 700 -720 Descending Boston Center
07:57AM 42.7333 -73.8000 160° South  Level FlightAware Approximate
08:04AM 42.7491 -73.8020 160° South  Level Estimated
08:05AM 42.7491 -73.8020 160° South  Level Estimated
08:06AM 42.7491 -73.8020 160° South  Level Estimated